Time;durP1;ratioP1;P1;durP2;ratioP2;P2;SDS_P1;SDS_P2;PMS_P1;PMS_P2;Temp;Humidity;BMP_temperature;BMP_pressure;BME280_temperature;BME280_humidity;BME280_pressure;Samples;Min_cycle;Max_cycle;Signal;HPM_P1;HPM_P2
2022/02/11 00:00:13;;;;;;;7.00;1.60;;;;;;;5.86;80.01;100580.27;105765;1271;22548;-65
2022/02/11 00:08:23;;;;;;;7.00;1.70;;;;;;;5.89;80.01;100569.26;105697;1274;22565;-64
2022/02/11 00:10:52;;;;;;;7.10;1.50;;;;;;;5.87;80.09;100571.44;105902;1274;22599;-61
2022/02/11 00:13:20;;;;;;;7.50;2.00;;;;;;;5.86;80.10;100571.88;105721;1274;22543;-65
2022/02/11 00:15:52;;;;;;;9.20;1.80;;;;;;;5.86;80.11;100571.02;105516;1274;25829;-64
2022/02/11 00:18:21;;;;;;;9.20;2.10;;;;;;;5.86;80.09;100569.27;105584;1274;22558;-64
2022/02/11 00:20:52;;;;;;;8.10;1.80;;;;;;;5.86;80.19;100572.75;105782;1274;25303;-64
2022/02/11 00:23:21;;;;;;;9.70;1.90;;;;;;;5.85;80.06;100576.27;105703;1274;25325;-64
2022/02/11 00:25:54;;;;;;;9.30;2.30;;;;;;;5.86;80.10;100580.59;105568;1274;23234;-69
2022/02/11 00:31:47;;;;;;;11.30;2.50;;;;;;;5.86;80.07;100585.73;105560;1274;24293;-64
2022/02/11 00:34:17;;;;;;;10.80;2.70;;;;;;;5.88;80.03;100580.53;105718;1274;22553;-64
2022/02/11 00:36:55;;;;;;;8.60;2.20;;;;;;;5.89;79.97;100579.25;105649;1274;22643;-64
2022/02/11 00:39:59;;;;;;;11.60;2.70;;;;;;;5.86;80.05;100571.48;105613;1274;22566;-64
2022/02/11 01:04:30;;;;;;;8.50;1.50;;;;;;;5.67;80.20;100571.84;105395;1279;24334;-64
2022/02/11 01:06:58;;;;;;;9.10;1.60;;;;;;;5.69;80.18;100564.17;105445;1280;22542;-65
2022/02/11 01:09:28;;;;;;;7.50;1.70;;;;;;;5.69;80.18;100568.98;105394;1278;25434;-63
2022/02/11 01:12:00;;;;;;;5.90;1.30;;;;;;;5.67;80.16;100571.25;105378;1278;22566;-66
2022/02/11 01:14:33;;;;;;;6.30;1.40;;;;;;;5.66;80.10;100569.06;105459;1278;25438;-65
2022/02/11 01:17:10;;;;;;;6.50;1.30;;;;;;;5.68;80.15;100560.48;105575;1277;22668;-65
2022/02/11 01:19:48;;;;;;;7.50;1.40;;;;;;;5.70;80.17;100564.08;105307;1277;25113;-64
2022/02/11 01:22:28;;;;;;;5.80;1.20;;;;;;;5.72;80.15;100562.04;105482;1277;25327;-64
2022/02/11 01:25:25;;;;;;;7.70;1.40;;;;;;;5.73;80.15;100558.37;105727;1274;25381;-62
2022/02/11 01:28:03;;;;;;;9.20;2.00;;;;;;;5.73;80.11;100547.28;105768;1274;22665;-64
2022/02/11 01:36:23;;;;;;;10.70;2.00;;;;;;;5.70;80.32;100556.23;105699;1274;22557;-64
2022/02/11 01:39:19;;;;;;;10.20;2.50;;;;;;;5.69;80.34;100550.32;105599;1274;25260;-65
2022/02/11 01:45:00;;;;;;;12.80;3.20;;;;;;;5.66;80.46;100548.35;105806;1271;23103;-63
2022/02/11 01:50:37;;;;;;;10.60;1.90;;;;;;;5.67;80.50;100546.11;105907;1271;22560;-65
2022/02/11 01:53:16;;;;;;;10.80;2.40;;;;;;;5.65;80.55;100535.15;105984;1271;22550;-64
2022/02/11 01:59:00;;;;;;;8.90;2.10;;;;;;;5.62;80.63;100536.27;105754;1271;24313;-64
2022/02/11 02:21:51;;;;;;;10.10;2.50;;;;;;;5.58;81.07;100525.45;105293;1279;26513;-64
2022/02/11 02:27:30;;;;;;;12.70;3.50;;;;;;;5.56;81.23;100520.05;105166;1281;24323;-63
2022/02/11 02:38:43;;;;;;;14.90;3.70;;;;;;;5.49;81.78;100500.48;105354;1284;25280;-65
2022/02/11 02:58:07;;;;;;;13.40;4.10;;;;;;;5.34;82.63;100495.94;105443;1276;22796;-63
2022/02/11 03:01:10;;;;;;;11.70;3.80;;;;;;;5.32;82.72;100489.86;105486;1277;22736;-64
2022/02/11 03:34:36;;;;;;;17.50;5.20;;;;;;;5.29;83.27;100473.77;105962;1271;22556;-64
2022/02/11 03:48:53;;;;;;;16.30;5.50;;;;;;;5.27;83.52;100461.15;105537;1274;25670;-63
2022/02/11 03:51:44;;;;;;;17.30;5.50;;;;;;;5.29;83.51;100461.48;105583;1274;22541;-63
2022/02/11 04:20:20;;;;;;;16.80;5.80;;;;;;;5.42;83.62;100443.08;105272;1279;22668;-64
2022/02/11 04:23:22;;;;;;;18.60;7.10;;;;;;;5.48;83.72;100436.83;104670;1284;24229;-62
2022/02/11 04:56:29;;;;;;;21.40;8.40;;;;;;;5.44;83.98;100419.52;105634;1271;25421;-61
2022/02/11 05:01:45;;;;;;;19.70;7.90;;;;;;;5.42;84.03;100412.42;105725;1271;22587;-62
2022/02/11 05:04:14;;;;;;;21.90;9.10;;;;;;;5.39;84.04;100412.08;105960;1273;22561;-63
2022/02/11 05:06:42;;;;;;;24.10;9.60;;;;;;;5.37;84.11;100411.67;105844;1271;22640;-62
2022/02/11 05:09:10;;;;;;;25.00;9.00;;;;;;;5.38;84.11;100413.06;105900;1270;22540;-60
2022/02/11 05:11:39;;;;;;;22.00;9.40;;;;;;;5.38;84.15;100413.61;105907;1270;22691;-62
2022/02/11 05:14:08;;;;;;;24.90;9.10;;;;;;;5.38;84.18;100413.92;105922;1271;25305;-62
2022/02/11 05:16:37;;;;;;;24.50;8.80;;;;;;;5.37;84.16;100411.98;106126;1270;22544;-62
2022/02/11 05:19:07;;;;;;;22.30;8.30;;;;;;;5.37;84.21;100405.58;105793;1270;22608;-62
2022/02/11 05:21:35;;;;;;;21.80;9.10;;;;;;;5.36;84.10;100405.84;106101;1270;24275;-62
2022/02/11 05:24:05;;;;;;;19.80;8.20;;;;;;;5.36;84.15;100410.11;105763;1271;22585;-61
2022/02/11 05:26:34;;;;;;;22.80;8.20;;;;;;;5.36;84.21;100409.87;105848;1270;25172;-64
2022/02/11 05:29:02;;;;;;;22.60;7.90;;;;;;;5.36;84.25;100403.88;105874;1270;24316;-63
2022/02/11 05:31:30;;;;;;;23.50;9.20;;;;;;;5.35;84.25;100400.50;106349;1270;23961;-62
2022/02/11 05:33:59;;;;;;;22.40;9.10;;;;;;;5.34;84.38;100405.90;106156;1270;22559;-61
2022/02/11 05:36:29;;;;;;;20.70;8.50;;;;;;;5.35;84.35;100405.73;106091;1270;23130;-61
2022/02/11 05:38:58;;;;;;;21.60;8.30;;;;;;;5.34;84.35;100410.82;105845;1270;22565;-62
2022/02/11 05:41:26;;;;;;;23.00;8.50;;;;;;;5.32;84.38;100409.83;106267;1261;22547;-60
2022/02/11 05:43:55;;;;;;;21.40;8.70;;;;;;;5.31;84.31;100406.80;105661;1271;25421;-58
2022/02/11 05:46:23;;;;;;;20.90;7.80;;;;;;;5.27;84.39;100413.62;106599;1271;23872;-59
2022/02/11 05:48:52;;;;;;;21.20;8.20;;;;;;;5.21;84.38;100414.89;106830;1271;22597;-59
2022/02/11 05:51:20;;;;;;;22.10;8.20;;;;;;;5.14;84.47;100416.91;105861;1273;25986;-58
2022/02/11 05:53:49;;;;;;;19.80;8.20;;;;;;;5.10;84.71;100424.69;106016;1273;24454;-59
2022/02/11 05:56:17;;;;;;;23.30;9.30;;;;;;;5.07;84.76;100421.63;105726;1273;22661;-60
2022/02/11 05:58:45;;;;;;;22.70;8.20;;;;;;;5.03;84.84;100421.57;105668;1271;25251;-59
2022/02/11 06:01:13;;;;;;;9.60;2.70;;;;;;;5.01;84.69;100417.83;105658;1271;24325;-59
2022/02/11 06:03:42;;;;;;;8.30;1.60;;;;;;;4.97;83.68;100416.05;105751;1273;25427;-60
2022/02/11 06:06:11;;;;;;;7.80;1.10;;;;;;;4.95;83.33;100417.99;105771;1273;22557;-60
2022/02/11 06:08:39;;;;;;;7.00;1.20;;;;;;;4.92;83.31;100423.67;105951;1274;24377;-60
2022/02/11 06:11:08;;;;;;;6.30;1.50;;;;;;;4.91;83.45;100427.27;105620;1271;22554;-60
2022/02/11 06:13:36;;;;;;;9.70;1.90;;;;;;;4.90;83.48;100423.41;105737;1271;22685;-61
2022/02/11 06:16:05;;;;;;;9.40;2.30;;;;;;;4.88;83.50;100425.63;105563;1273;24297;-60
2022/02/11 06:18:34;;;;;;;9.80;2.30;;;;;;;4.83;83.70;100423.85;105782;1271;22575;-60
2022/02/11 06:21:02;;;;;;;7.20;1.50;;;;;;;4.77;83.72;100428.91;105881;1271;22750;-59
2022/02/11 06:23:31;;;;;;;5.40;1.20;;;;;;;4.68;83.52;100431.12;105544;1273;22702;-60
2022/02/11 06:25:59;;;;;;;3.90;0.90;;;;;;;4.57;83.35;100432.83;105538;1273;22557;-61
2022/02/11 06:28:28;;;;;;;4.40;0.90;;;;;;;4.46;83.32;100429.55;105774;1273;22565;-62
2022/02/11 06:30:56;;;;;;;5.00;1.00;;;;;;;4.38;83.55;100432.74;105743;1271;22556;-61
2022/02/11 06:33:25;;;;;;;4.50;1.10;;;;;;;4.30;83.75;100437.30;105710;1272;22653;-62
2022/02/11 06:35:54;;;;;;;6.10;1.30;;;;;;;4.26;83.98;100435.11;105824;1273;24217;-63
2022/02/11 06:38:25;;;;;;;5.40;1.30;;;;;;;4.23;84.15;100433.83;105845;1273;22570;-62
2022/02/11 06:40:54;;;;;;;7.00;1.20;;;;;;;4.19;84.32;100435.75;105738;1273;24590;-62
2022/02/11 06:43:23;;;;;;;7.40;1.20;;;;;;;4.13;84.39;100440.15;105815;1271;24237;-60
2022/02/11 06:45:52;;;;;;;8.50;1.70;;;;;;;4.07;84.51;100444.23;105791;1271;22816;-61
2022/02/11 06:48:23;;;;;;;7.50;1.90;;;;;;;4.00;84.62;100442.59;106093;1271;24038;-61
2022/02/11 06:50:53;;;;;;;5.70;1.30;;;;;;;3.97;84.72;100446.98;105847;1274;22553;-60
2022/02/11 06:53:22;;;;;;;7.30;1.10;;;;;;;3.94;84.06;100447.84;105816;1273;22693;-62
2022/02/11 06:55:51;;;;;;;4.30;0.90;;;;;;;3.91;84.36;100448.01;105583;1271;25287;-60
2022/02/11 06:58:22;;;;;;;11.00;2.30;;;;;;;3.91;84.56;100451.08;105744;1273;23944;-60
2022/02/11 07:00:51;;;;;;;11.70;2.50;;;;;;;3.92;84.81;100449.80;105657;1270;22581;-61
2022/02/11 07:03:20;;;;;;;12.50;3.10;;;;;;;3.94;85.07;100449.75;105556;1271;22674;-61
2022/02/11 07:05:51;;;;;;;15.30;3.60;;;;;;;3.95;85.19;100447.90;105589;1271;25534;-60
2022/02/11 07:08:20;;;;;;;15.10;2.60;;;;;;;3.96;85.21;100450.48;105816;1271;24411;-59
2022/02/11 07:10:48;;;;;;;10.10;2.70;;;;;;;3.96;85.09;100448.67;105792;1270;22586;-59
2022/02/11 07:13:17;;;;;;;11.00;2.40;;;;;;;3.93;85.18;100446.61;106075;1271;23772;-61
2022/02/11 07:15:46;;;;;;;12.30;2.40;;;;;;;3.91;85.20;100448.30;106118;1271;22568;-60
2022/02/11 07:18:15;;;;;;;10.20;2.20;;;;;;;3.91;85.42;100449.32;105859;1273;24319;-58
2022/02/11 07:20:43;;;;;;;7.60;2.00;;;;;;;3.91;85.33;100448.06;105662;1273;24319;-58
2022/02/11 07:23:12;;;;;;;11.30;2.10;;;;;;;3.91;85.37;100451.08;106111;1273;22573;-58
2022/02/11 07:25:42;;;;;;;7.60;1.80;;;;;;;3.91;85.34;100449.09;106202;1273;25448;-57
2022/02/11 07:28:11;;;;;;;7.30;1.80;;;;;;;3.91;85.39;100449.80;106005;1273;23942;-59
2022/02/11 07:30:40;;;;;;;11.10;2.40;;;;;;;3.91;85.37;100445.33;105931;1273;23052;-61
2022/02/11 07:33:09;;;;;;;7.70;1.80;;;;;;;3.89;85.49;100443.05;106047;1273;25396;-61
2022/02/11 07:35:38;;;;;;;6.20;1.60;;;;;;;3.88;85.51;100445.22;106087;1271;22508;-59
2022/02/11 07:38:09;;;;;;;8.20;1.80;;;;;;;3.86;85.59;100447.71;106250;1273;25414;-59
2022/02/11 07:40:39;;;;;;;9.20;1.70;;;;;;;3.83;85.66;100448.34;106076;1270;22538;-60
2022/02/11 07:43:08;;;;;;;5.00;1.30;;;;;;;3.80;85.78;100449.34;106215;1270;22534;-60
2022/02/11 07:45:37;;;;;;;5.80;1.30;;;;;;;3.78;85.65;100452.94;106512;1271;22584;-60
2022/02/11 07:48:07;;;;;;;6.60;1.40;;;;;;;3.72;85.48;100455.91;106026;1273;22563;-59
2022/02/11 07:50:38;;;;;;;3.90;0.90;;;;;;;3.69;85.61;100455.27;106172;1273;24231;-61
2022/02/11 07:53:06;;;;;;;3.80;0.90;;;;;;;3.60;85.72;100455.30;106140;1271;25383;-58
2022/02/11 07:55:35;;;;;;;5.50;1.00;;;;;;;3.49;85.87;100459.71;105896;1274;22544;-61
2022/02/11 07:58:05;;;;;;;7.00;0.90;;;;;;;3.41;85.66;100465.40;106000;1273;22718;-62
2022/02/11 08:00:34;;;;;;;3.60;0.80;;;;;;;3.34;85.85;100465.71;106012;1273;22557;-60
2022/02/11 08:03:03;;;;;;;4.90;0.80;;;;;;;3.27;85.65;100473.08;106599;1272;22790;-60
2022/02/11 08:05:31;;;;;;;5.10;0.90;;;;;;;3.23;85.57;100471.67;106411;1273;23203;-61
2022/02/11 08:07:59;;;;;;;4.00;0.80;;;;;;;3.19;85.64;100471.98;106008;1271;22542;-60
2022/02/11 08:10:28;;;;;;;5.00;0.80;;;;;;;3.19;85.69;100476.15;105975;1273;24254;-61
2022/02/11 08:12:57;;;;;;;5.00;0.70;;;;;;;3.20;85.74;100471.02;106107;1273;25318;-61
2022/02/11 08:15:26;;;;;;;4.20;0.80;;;;;;;3.17;85.64;100476.99;106554;1271;22557;-59
2022/02/11 08:17:54;;;;;;;4.20;0.90;;;;;;;3.14;85.28;100482.72;106294;1270;22977;-62
2022/02/11 08:20:30;;;;;;;3.40;0.60;;;;;;;3.09;85.13;100480.61;105996;1273;22540;-59
2022/02/11 08:23:00;;;;;;;3.30;0.70;;;;;;;3.02;84.99;100479.71;105978;1273;25259;-58
2022/02/11 08:25:29;;;;;;;4.00;0.60;;;;;;;2.96;85.10;100480.23;106068;1271;25459;-59
2022/02/11 08:27:57;;;;;;;3.50;0.60;;;;;;;2.89;85.19;100479.39;105944;1273;22550;-59
2022/02/11 08:30:26;;;;;;;4.60;0.70;;;;;;;2.88;85.43;100481.30;106359;1273;25144;-61
2022/02/11 08:32:55;;;;;;;2.90;0.60;;;;;;;2.84;85.31;100480.90;106194;1273;22563;-61
2022/02/11 08:35:24;;;;;;;4.40;0.70;;;;;;;2.76;85.30;100487.49;106137;1270;24249;-60
2022/02/11 08:37:53;;;;;;;5.70;0.90;;;;;;;2.65;85.21;100489.98;106085;1273;26649;-62
2022/02/11 08:40:22;;;;;;;3.50;0.70;;;;;;;2.52;85.06;100485.86;105912;1273;25386;-58
2022/02/11 08:42:51;;;;;;;3.30;0.70;;;;;;;2.43;85.13;100482.15;106143;1273;24046;-59
2022/02/11 08:45:20;;;;;;;2.50;0.70;;;;;;;2.33;85.31;100492.45;105914;1273;22849;-58
2022/02/11 08:47:50;;;;;;;6.60;1.30;;;;;;;2.24;85.36;100505.65;106145;1273;23804;-59
2022/02/11 08:50:24;;;;;;;3.20;0.60;;;;;;;2.14;85.51;100514.63;106147;1273;22543;-59
2022/02/11 08:52:54;;;;;;;5.30;1.00;;;;;;;2.06;85.72;100511.91;105939;1273;22483;-59
2022/02/11 08:55:23;;;;;;;6.10;1.20;;;;;;;1.96;85.77;100518.73;105712;1271;22557;-59
2022/02/11 08:57:53;;;;;;;4.50;0.80;;;;;;;1.88;85.86;100515.77;106094;1273;25276;-59
2022/02/11 09:00:22;;;;;;;3.70;0.90;;;;;;;1.84;86.19;100518.59;106133;1273;24128;-59
2022/02/11 09:02:50;;;;;;;5.80;1.10;;;;;;;1.78;86.34;100520.70;106172;1273;22641;-58
2022/02/11 09:05:21;;;;;;;4.20;0.90;;;;;;;1.74;86.50;100513.83;106210;1273;22622;-61
2022/02/11 09:07:51;;;;;;;;;;;;;;;1.72;86.79;100512.67;106054;1273;22541;-58
2022/02/11 09:10:20;;;;;;;6.90;0.90;;;;;;;1.72;87.11;100514.50;106084;1271;22544;-56
2022/02/11 09:12:48;;;;;;;4.20;0.80;;;;;;;1.74;87.35;100516.11;106145;1273;26005;-59
2022/02/11 09:15:17;;;;;;;4.10;0.70;;;;;;;1.75;87.21;100512.17;105938;1273;22580;-59
2022/02/11 09:17:46;;;;;;;4.20;0.80;;;;;;;1.75;87.18;100515.63;106199;1273;22618;-59
2022/02/11 09:20:15;;;;;;;4.10;0.90;;;;;;;1.76;87.21;100521.04;106175;1273;26079;-58
2022/02/11 09:22:45;;;;;;;5.50;1.10;;;;;;;1.77;87.26;100531.08;106296;1273;25447;-58
2022/02/11 09:25:14;;;;;;;4.30;1.00;;;;;;;1.76;87.01;100537.32;106156;1273;23197;-60
2022/02/11 09:27:43;;;;;;;3.00;0.70;;;;;;;1.75;87.09;100546.53;106551;1273;25096;-59
2022/02/11 09:30:15;;;;;;;3.30;0.80;;;;;;;1.72;87.11;100551.45;106114;1271;26665;-58
2022/02/11 09:32:45;;;;;;;4.00;0.80;;;;;;;1.68;86.93;100550.63;106071;1273;455121;-57
2022/02/11 09:35:16;;;;;;;6.10;0.80;;;;;;;1.65;87.12;100554.73;106115;1272;26600;-57
2022/02/11 09:37:45;;;;;;;3.30;0.70;;;;;;;1.64;87.21;100557.91;106193;1273;24003;-58
2022/02/11 09:40:21;;;;;;;4.40;0.70;;;;;;;1.62;87.22;100557.84;106222;1273;22573;-61
2022/02/11 09:42:53;;;;;;;2.60;0.60;;;;;;;1.63;87.41;100560.13;106243;1271;25431;-60
2022/02/11 09:45:23;;;;;;;3.10;0.60;;;;;;;1.63;87.51;100568.54;106108;1273;22705;-60
2022/02/11 09:47:52;;;;;;;1.90;0.40;;;;;;;1.63;87.55;100571.84;105971;1273;24323;-60
2022/02/11 09:50:22;;;;;;;2.40;0.50;;;;;;;1.62;87.49;100569.48;106041;1271;25393;-58
2022/02/11 09:52:53;;;;;;;2.40;0.50;;;;;;;1.64;87.52;100573.48;106173;1273;22707;-59
2022/02/11 09:55:33;;;;;;;3.50;0.70;;;;;;;1.65;87.50;100569.21;106241;1271;25267;-61
2022/02/11 09:58:05;;;;;;;3.10;0.40;;;;;;;1.66;87.55;100570.84;105937;1273;24512;-60
2022/02/11 10:00:35;;;;;;;3.30;0.50;;;;;;;1.67;87.64;100581.95;106087;1273;25385;-57
2022/02/11 10:03:14;;;;;;;1.70;0.50;;;;;;;1.68;87.78;100588.77;106229;1270;22672;-55
2022/02/11 10:05:49;;;;;;;4.90;1.00;;;;;;;1.70;87.86;100598.17;106071;1270;25514;-59
2022/02/11 10:08:19;;;;;;;5.40;1.20;;;;;;;1.69;87.88;100610.85;106014;1273;25575;-56
2022/02/11 10:10:52;;;;;;;6.80;1.30;;;;;;;1.68;87.89;100618.34;106018;1273;27678;-58
2022/02/11 10:13:25;;;;;;;4.00;0.90;;;;;;;1.66;88.17;100616.61;106124;1273;24418;-59
2022/02/11 10:15:57;;;;;;;4.30;0.90;;;;;;;1.63;88.06;100621.04;106327;1273;25254;-57
2022/02/11 10:18:29;;;;;;;4.90;0.90;;;;;;;1.60;87.90;100620.92;106287;1272;24277;-57
2022/02/11 10:21:00;;;;;;;5.40;1.10;;;;;;;1.61;88.09;100627.69;106169;1271;22697;-56
2022/02/11 10:23:28;;;;;;;;;;;;;;;1.62;88.15;100630.97;106086;1271;22571;-53
2022/02/11 10:26:00;;;;;;;3.30;0.80;;;;;;;1.64;88.31;100627.18;105757;1273;25608;-58
2022/02/11 10:28:32;;;;;;;6.00;1.30;;;;;;;1.64;88.39;100628.59;105630;1271;22554;-53
2022/02/11 10:31:11;;;;;;;5.20;1.30;;;;;;;1.65;88.37;100627.33;105810;1271;24240;-57
2022/02/11 10:33:57;;;;;;;4.80;1.60;;;;;;;1.67;88.53;100625.58;105552;1273;25498;-58
2022/02/11 10:36:27;;;;;;;6.50;1.80;;;;;;;1.68;88.48;100628.31;105979;1273;24270;-55
2022/02/11 10:39:10;;;;;;;5.80;1.50;;;;;;;1.68;88.61;100634.05;105585;1273;23799;-57
2022/02/11 10:41:42;;;;;;;5.50;1.30;;;;;;;1.68;88.84;100639.72;105552;1273;23033;-55
2022/02/11 10:44:14;;;;;;;4.40;1.30;;;;;;;1.72;88.93;100650.06;105764;1273;25541;-55
2022/02/11 10:46:44;;;;;;;7.50;1.70;;;;;;;1.75;89.07;100655.29;105826;1273;22825;-57
2022/02/11 10:49:14;;;;;;;6.60;1.20;;;;;;;1.78;89.08;100652.34;105354;1271;22553;-56
2022/02/11 10:51:44;;;;;;;5.90;1.30;;;;;;;1.80;88.92;100656.89;105958;1273;24302;-56
2022/02/11 10:54:29;;;;;;;4.90;1.40;;;;;;;1.80;88.86;100663.33;105852;1271;22574;-62
2022/02/11 10:57:01;;;;;;;5.40;1.20;;;;;;;1.80;88.78;100673.88;105470;1273;22572;-57
2022/02/11 10:59:33;;;;;;;2.90;0.90;;;;;;;1.79;88.84;100676.95;105565;1273;22774;-57
2022/02/11 11:02:04;;;;;;;5.60;1.30;;;;;;;1.76;89.10;100682.42;105834;1273;25476;-58
2022/02/11 11:04:34;;;;;;;4.50;1.20;;;;;;;1.71;89.14;100687.02;105691;1273;22689;-56
2022/02/11 11:07:04;;;;;;;4.90;1.40;;;;;;;1.73;89.08;100688.27;105848;1273;25397;-56
2022/02/11 11:09:33;;;;;;;;;;;;;;;1.73;89.06;100690.70;106303;1273;22752;-57
2022/02/11 11:12:06;;;;;;;4.90;1.20;;;;;;;1.72;88.96;100697.08;106010;1270;22622;-59
2022/02/11 11:14:35;;;;;;;3.60;1.10;;;;;;;1.74;88.92;100702.64;105871;1273;22540;-59
2022/02/11 11:17:04;;;;;;;7.60;1.30;;;;;;;1.74;88.78;100705.30;106025;1273;23104;-59
2022/02/11 11:19:35;;;;;;;5.60;0.90;;;;;;;1.74;88.84;100702.89;109672;1270;22481;-56
2022/02/11 11:22:14;;;;;;;4.00;1.10;;;;;;;1.73;88.71;100703.05;106069;1271;24289;-59
2022/02/11 11:24:48;;;;;;;3.10;0.90;;;;;;;1.74;88.91;100704.36;106057;1270;22573;-59
2022/02/11 11:27:41;;;;;;;5.60;1.00;;;;;;;1.73;88.70;100704.70;106001;1273;22557;-60
2022/02/11 11:30:29;;;;;;;4.50;1.00;;;;;;;1.68;88.46;100708.44;105870;1273;22535;-59
2022/02/11 11:33:23;;;;;;;5.60;1.40;;;;;;;1.65;88.44;100705.08;106098;1273;24961;-61
2022/02/11 11:36:19;;;;;;;8.10;1.50;;;;;;;1.64;88.57;100711.62;106053;1273;22635;-59
2022/02/11 11:38:58;;;;;;;5.50;1.50;;;;;;;1.63;88.62;100718.39;105906;1276;24469;-59
2022/02/11 11:41:31;;;;;;;6.20;1.20;;;;;;;1.63;88.82;100725.70;105946;1276;25437;-58
2022/02/11 11:44:17;;;;;;;5.70;1.30;;;;;;;1.63;89.11;100729.65;105480;1276;25390;-57
2022/02/11 11:46:50;;;;;;;7.00;1.60;;;;;;;1.64;89.15;100729.54;105448;1276;22576;-56
2022/02/11 11:49:21;;;;;;;6.30;1.70;;;;;;;1.67;89.24;100733.30;105799;1276;22812;-56
2022/02/11 11:52:10;;;;;;;12.20;1.80;;;;;;;1.69;89.30;100736.98;105680;1276;23069;-58
2022/02/11 11:54:39;;;;;;;10.40;2.00;;;;;;;1.73;89.53;100737.17;105785;1276;25211;-59
2022/02/11 11:57:09;;;;;;;12.40;3.00;;;;;;;1.78;89.50;100736.80;105513;1276;23011;-58
2022/02/11 11:59:43;;;;;;;7.80;1.70;;;;;;;1.82;89.64;100742.44;105580;1276;22604;-56
2022/02/11 12:02:13;;;;;;;10.50;2.00;;;;;;;1.84;89.33;100745.27;105792;1276;22544;-59
2022/02/11 12:04:53;;;;;;;13.50;2.50;;;;;;;1.86;89.30;100747.84;105801;1276;22746;-57
2022/02/11 12:07:24;;;;;;;18.40;4.60;;;;;;;1.89;89.43;100756.14;105456;1276;25338;-59
2022/02/11 12:09:55;;;;;;;24.70;7.60;;;;;;;1.89;89.26;100758.73;105729;1276;22646;-59
2022/02/11 12:12:25;;;;;;;29.70;10.80;;;;;;;1.93;89.47;100762.39;105787;1275;25391;-58
2022/02/11 12:14:56;;;;;;;13.60;3.50;;;;;;;1.95;89.53;100762.54;107397;1273;22715;-61
2022/02/11 12:17:26;;;;;;;9.50;1.90;;;;;;;1.98;89.51;100760.45;106100;1273;22577;-58
2022/02/11 12:19:56;;;;;;;5.80;1.30;;;;;;;2.02;89.75;100764.74;106049;1273;22654;-57
2022/02/11 12:22:27;;;;;;;8.30;1.40;;;;;;;2.06;89.76;100762.91;106071;1273;24361;-56
2022/02/11 12:27:58;;;;;;;9.00;1.80;;;;;;;2.10;89.62;100766.55;105200;1276;25571;-57
2022/02/11 12:30:28;;;;;;;7.50;1.90;;;;;;;2.11;89.51;100766.70;105367;1276;22565;-57
2022/02/11 12:32:59;;;;;;;9.40;2.40;;;;;;;2.14;89.61;100766.04;105352;1276;22634;-57
2022/02/11 12:35:29;;;;;;;10.30;2.70;;;;;;;2.19;89.86;100773.63;105401;1276;22588;-58
2022/02/11 12:38:00;;;;;;;7.00;2.00;;;;;;;2.24;89.98;100781.52;105468;1276;24476;-58
2022/02/11 12:40:30;;;;;;;9.60;2.10;;;;;;;2.28;89.87;100782.02;106446;1276;22661;-57
2022/02/11 12:43:05;;;;;;;9.40;2.30;;;;;;;2.32;89.63;100782.15;105598;1276;25370;-58
2022/02/11 12:45:37;;;;;;;5.60;1.50;;;;;;;2.36;89.60;100778.25;105785;1276;24249;-58
2022/02/11 12:48:12;;;;;;;7.30;1.40;;;;;;;2.40;89.61;100778.35;105666;1276;25489;-58
2022/02/11 12:50:45;;;;;;;6.50;1.40;;;;;;;2.45;89.62;100789.01;105668;1276;25272;-58
2022/02/11 12:53:17;;;;;;;6.10;1.60;;;;;;;2.50;89.74;100798.15;105578;1276;25386;-58
2022/02/11 12:55:50;;;;;;;4.30;1.00;;;;;;;2.55;89.42;100798.35;105343;1276;22632;-56
2022/02/11 12:58:20;;;;;;;6.40;1.10;;;;;;;2.58;89.44;100806.42;105299;1274;25354;-58
2022/02/11 13:01:37;;;;;;;4.50;1.00;;;;;;;2.59;88.99;100807.05;105689;1270;22659;-57
2022/02/11 13:04:08;;;;;;;6.30;1.30;;;;;;;2.57;88.92;100805.09;105555;1272;22600;-58
2022/02/11 13:06:35;;;;;;;;;;;;;;;2.56;88.94;100813.14;105915;1273;22519;-58
2022/02/11 13:09:05;;;;;;;5.80;1.20;;;;;;;2.56;88.77;100814.79;105404;1272;23896;-58
2022/02/11 13:11:35;;;;;;;4.30;1.10;;;;;;;2.56;89.01;100812.11;106737;1270;22607;-55
2022/02/11 13:14:05;;;;;;;6.40;0.80;;;;;;;2.59;89.20;100818.39;106182;1273;24454;-57
2022/02/11 13:16:34;;;;;;;3.50;0.90;;;;;;;2.62;89.14;100826.07;105535;1272;25436;-58
2022/02/11 13:19:13;;;;;;;8.30;1.40;;;;;;;2.63;89.09;100824.02;105534;1273;27578;-57
2022/02/11 13:21:43;;;;;;;4.80;1.20;;;;;;;2.64;89.11;100831.80;105773;1273;22549;-55
2022/02/11 13:24:12;;;;;;;8.90;2.30;;;;;;;2.64;89.14;100835.58;105819;1273;22691;-57
2022/02/11 13:26:41;;;;;;;7.00;1.60;;;;;;;2.66;89.11;100844.46;105956;1270;23095;-58
2022/02/11 13:29:16;;;;;;;5.10;1.40;;;;;;;2.67;89.00;100844.29;105883;1272;23858;-57
2022/02/11 13:31:50;;;;;;;3.40;0.90;;;;;;;2.68;89.06;100854.67;105980;1273;25662;-57
2022/02/11 13:34:19;;;;;;;5.90;1.20;;;;;;;2.68;88.90;100856.16;105661;1273;25294;-58
2022/02/11 13:36:48;;;;;;;4.90;1.00;;;;;;;2.68;88.84;100857.11;105711;1273;22598;-58
2022/02/11 13:39:28;;;;;;;3.90;0.80;;;;;;;2.68;88.95;100857.27;105641;1273;22625;-59
2022/02/11 13:41:57;;;;;;;4.90;0.80;;;;;;;2.67;88.89;100852.48;105699;1271;22946;-58
2022/02/11 13:44:26;;;;;;;5.40;1.00;;;;;;;2.66;88.76;100855.88;105588;1273;23080;-58
2022/02/11 13:46:56;;;;;;;5.40;0.90;;;;;;;2.65;88.74;100862.12;105554;1273;25274;-59
2022/02/11 13:49:24;;;;;;;3.40;0.80;;;;;;;2.63;88.78;100870.08;105839;1273;22629;-58
2022/02/11 13:55:00;;;;;;;2.70;0.50;;;;;;;2.60;88.65;100880.36;105611;1273;25439;-57
2022/02/11 13:57:29;;;;;;;2.30;0.50;;;;;;;2.59;88.69;100879.17;105785;1273;23476;-58
2022/02/11 14:00:25;;;;;;;3.10;0.50;;;;;;;2.60;88.58;100892.25;105691;1273;22577;-59
2022/02/11 14:02:54;;;;;;;2.70;0.50;;;;;;;2.60;88.36;100903.90;105648;1273;26526;-58
2022/02/11 14:05:23;;;;;;;3.10;0.50;;;;;;;2.60;88.24;100911.77;105584;1273;22504;-57
2022/02/11 14:07:56;;;;;;;2.30;0.50;;;;;;;2.60;87.97;100913.66;105706;1273;22584;-58
2022/02/11 14:10:24;;;;;;;2.30;0.50;;;;;;;2.60;87.83;100916.27;105865;1273;22549;-54
2022/02/11 14:13:07;;;;;;;2.50;0.40;;;;;;;2.59;87.69;100915.23;105671;1273;25409;-57
2022/02/11 14:15:39;;;;;;;2.00;0.40;;;;;;;2.59;87.54;100915.80;105786;1273;22550;-58
2022/02/11 14:18:08;;;;;;;4.00;0.70;;;;;;;2.59;87.57;100919.42;105833;1273;22557;-58
2022/02/11 14:20:38;;;;;;;4.70;0.60;;;;;;;2.61;87.64;100919.80;105968;1273;22546;-57
2022/02/11 14:23:15;;;;;;;5.70;0.90;;;;;;;2.61;87.70;100920.19;105744;1273;25404;-57
2022/02/11 14:25:46;;;;;;;6.50;1.20;;;;;;;2.60;87.57;100920.76;105826;1273;26583;-58
2022/02/11 14:28:18;;;;;;;7.80;1.30;;;;;;;2.57;87.39;100928.18;105665;1273;25529;-59
2022/02/11 14:30:47;;;;;;;7.00;1.20;;;;;;;2.52;87.26;100931.30;105548;1273;25532;-58
2022/02/11 14:33:16;;;;;;;7.10;1.10;;;;;;;2.48;87.24;100937.48;105715;1271;23920;-58
2022/02/11 14:35:44;;;;;;;7.70;1.30;;;;;;;2.43;87.16;100945.38;105938;1273;22543;-56
2022/02/11 14:38:13;;;;;;;8.20;1.90;;;;;;;2.39;87.16;100954.16;105623;1273;24410;-58
2022/02/11 14:41:45;;;;;;;6.80;1.70;;;;;;;2.35;87.23;100954.52;105735;1273;22572;-54
2022/02/11 14:43:31;;;;;;;12.70;2.10;;;;;;;2.33;87.34;100961.14;105557;1273;24447;-58
2022/02/11 14:45:59;;;;;;;8.10;1.40;;;;;;;2.31;87.14;100968.71;105828;1273;22566;-57
2022/02/11 14:48:28;;;;;;;10.30;1.90;;;;;;;2.30;87.10;100970.75;105726;1273;22639;-58
2022/02/11 14:50:56;;;;;;;6.80;1.90;;;;;;;2.30;87.23;100976.21;105605;1270;23086;-58
2022/02/11 14:53:25;;;;;;;6.10;1.40;;;;;;;2.30;87.20;100976.98;105739;1272;22602;-58
2022/02/11 14:55:54;;;;;;;11.40;1.50;;;;;;;2.31;86.84;100975.17;105632;1273;22561;-58
2022/02/11 14:58:23;;;;;;;7.70;1.80;;;;;;;2.32;86.73;100976.48;105602;1274;22538;-59
2022/02/11 15:00:52;;;;;;;10.30;1.70;;;;;;;2.33;86.65;100977.61;105895;1273;25325;-56
2022/02/11 15:03:20;;;;;;;9.20;1.80;;;;;;;2.33;86.66;100973.36;105636;1273;22712;-58
2022/02/11 15:05:50;;;;;;;5.20;1.20;;;;;;;2.33;86.73;100978.46;105800;1273;22541;-57
2022/02/11 15:08:19;;;;;;;8.10;1.80;;;;;;;2.33;86.43;100980.98;105651;1273;24177;-57